createdAt,value
2023-04-13T00:00:14.753Z,6
2023-04-13T00:01:13.855Z,6
2023-04-13T00:02:15.738Z,6
2023-04-13T00:03:15.979Z,6
2023-04-13T00:04:14.775Z,6
2023-04-13T00:05:15.069Z,6
2023-04-13T00:06:14.992Z,6
2023-04-13T00:07:15.316Z,8
2023-04-13T00:08:15.508Z,8
2023-04-13T00:12:14.560Z,4
2023-04-13T00:13:14.999Z,4
2023-04-13T00:14:15.081Z,4
2023-04-13T00:15:15.653Z,4
2023-04-13T00:16:14.585Z,4
2023-04-13T00:17:16.231Z,6
2023-04-13T00:18:15.206Z,6
2023-04-13T00:19:15.012Z,6
2023-04-13T00:20:15.289Z,6
2023-04-13T00:22:14.678Z,5
2023-04-13T00:23:14.803Z,5
2023-04-13T00:24:14.103Z,5
2023-04-13T00:25:15.411Z,5
2023-04-13T00:26:15.253Z,5
2023-04-13T00:27:14.386Z,8
2023-04-13T00:28:15.020Z,8
2023-04-13T00:29:14.777Z,8
2023-04-13T00:30:15.235Z,8
2023-04-13T00:31:15.406Z,8
2023-04-13T00:32:15.550Z,8
2023-04-13T00:33:15.039Z,8
2023-04-13T00:34:15.092Z,8
2023-04-13T00:35:15.267Z,8
2023-04-13T00:36:15.507Z,8
2023-04-13T00:37:14.744Z,5
2023-04-13T00:38:14.933Z,5
2023-04-13T00:39:15.146Z,5
2023-04-13T00:40:14.740Z,5
2023-04-13T00:41:15.033Z,5
2023-04-13T00:42:15.431Z,6
2023-04-13T00:43:14.732Z,6
2023-04-13T00:47:14.749Z,6
2023-04-13T00:48:15.612Z,6
2023-04-13T00:49:15.483Z,6
2023-04-13T00:50:14.717Z,6
2023-04-13T00:51:14.247Z,6
2023-04-13T00:52:14.753Z,6
2023-04-13T00:53:18.397Z,6
2023-04-13T00:54:14.797Z,6
2023-04-13T00:55:15.310Z,6
2023-04-13T00:56:15.358Z,6
2023-04-13T00:57:14.755Z,5
2023-04-13T00:58:14.812Z,5
2023-04-13T00:59:14.923Z,5
2023-04-13T01:00:15.265Z,5
2023-04-13T01:01:15.630Z,5
2023-04-13T01:02:15.472Z,5
2023-04-13T01:03:16.636Z,5
2023-04-13T01:04:15.683Z,5
2023-04-13T01:08:14.977Z,11
2023-04-13T01:09:15.130Z,11
2023-04-13T01:10:15.375Z,11
2023-04-13T01:11:14.855Z,11
2023-04-13T01:12:15.043Z,18
2023-04-13T01:13:15.457Z,18
2023-04-13T01:14:15.535Z,18
2023-04-13T01:15:14.491Z,18
2023-04-13T01:16:15.157Z,18
2023-04-13T01:17:13.942Z,13
2023-04-13T01:18:15.001Z,13
2023-04-13T01:19:15.347Z,13
2023-04-13T01:20:15.319Z,13
2023-04-13T01:21:15.501Z,13
2023-04-13T01:26:14.609Z,11
2023-04-13T01:27:14.806Z,9
2023-04-13T01:28:14.962Z,9
2023-04-13T01:29:15.081Z,9
2023-04-13T01:30:14.548Z,9
2023-04-13T01:31:14.931Z,9
2023-04-13T01:32:15.012Z,8
2023-04-13T01:33:15.643Z,8
2023-04-13T01:34:15.316Z,8
2023-04-13T01:35:14.306Z,8
2023-04-13T01:36:14.817Z,8
2023-04-13T01:37:14.634Z,14
2023-04-13T01:38:14.958Z,14
2023-04-13T01:39:15.300Z,14
2023-04-13T01:40:15.498Z,14
2023-04-13T01:41:13.578Z,14
2023-04-13T01:42:14.793Z,14
2023-04-13T01:43:15.093Z,12
2023-04-13T01:44:15.428Z,12
2023-04-13T01:45:15.337Z,12
2023-04-13T01:49:14.806Z,11
2023-04-13T01:50:14.883Z,11
2023-04-13T01:51:15.060Z,11
2023-04-13T01:52:15.301Z,9
2023-04-13T01:53:14.359Z,9
2023-04-13T01:54:15.008Z,9
2023-04-13T01:55:15.160Z,9
2023-04-13T01:56:15.006Z,9
2023-04-13T01:57:15.376Z,6
2023-04-13T01:59:14.785Z,6
2023-04-13T02:00:15.058Z,6
2023-04-13T02:01:15.234Z,6
2023-04-13T02:02:15.658Z,5
2023-04-13T02:03:15.620Z,5
2023-04-13T02:04:17.150Z,5
2023-04-13T02:09:14.640Z,1
2023-04-13T02:10:15.022Z,1
2023-04-13T02:11:15.130Z,1
2023-04-13T02:12:15.537Z,3
2023-04-13T02:13:14.738Z,3
2023-04-13T02:14:15.011Z,3
2023-04-13T02:15:15.094Z,3
2023-04-13T02:16:15.293Z,3
2023-04-13T02:17:15.225Z,4
2023-04-13T02:23:14.542Z,1
2023-04-13T02:24:14.928Z,1
2023-04-13T02:25:15.009Z,1
2023-04-13T02:26:15.419Z,1
2023-04-13T02:27:14.813Z,5
2023-04-13T02:28:15.282Z,5
2023-04-13T02:29:15.174Z,5
2023-04-13T02:30:15.425Z,5
2023-04-13T02:31:14.509Z,5
2023-04-13T02:32:15.908Z,1
2023-04-13T02:34:14.874Z,1
2023-04-13T02:35:15.135Z,1
2023-04-13T02:37:14.896Z,1
2023-04-13T02:38:15.162Z,1
2023-04-13T02:39:15.051Z,1
2023-04-13T02:42:15.020Z,5
2023-04-13T02:43:15.519Z,5
2023-04-13T02:44:14.869Z,5
2023-04-13T02:45:15.084Z,5
2023-04-13T02:46:15.743Z,5
2023-04-13T02:47:15.254Z,4
2023-04-13T02:48:15.695Z,4
2023-04-13T02:51:14.255Z,4
2023-04-13T02:52:15.280Z,6
2023-04-13T02:53:14.782Z,6
2023-04-13T02:54:15.176Z,6
2023-04-13T02:55:14.865Z,6
2023-04-13T02:56:14.989Z,6
2023-04-13T02:57:15.300Z,5
2023-04-13T02:58:15.471Z,5
2023-04-13T02:59:14.828Z,5
2023-04-13T03:00:14.945Z,5
2023-04-13T03:01:15.433Z,5
2023-04-13T03:02:15.679Z,5
2023-04-13T03:03:14.755Z,5
2023-04-13T03:04:15.302Z,5
2023-04-13T03:05:15.637Z,5
2023-04-13T03:06:14.628Z,5
2023-04-13T03:07:14.817Z,5
2023-04-13T03:08:15.052Z,5
2023-04-13T03:09:15.455Z,5
2023-04-13T03:10:14.640Z,5
2023-04-13T03:11:14.814Z,5
2023-04-13T03:12:15.033Z,7
2023-04-13T03:13:14.486Z,7
2023-04-13T03:14:15.439Z,7
2023-04-13T03:15:15.566Z,7
2023-04-13T03:16:15.537Z,7
2023-04-13T03:17:15.207Z,5
2023-04-13T03:20:14.788Z,5
2023-04-13T03:21:15.168Z,5
2023-04-13T03:22:15.396Z,6
2023-04-13T03:23:14.533Z,6
2023-04-13T03:24:14.928Z,6
2023-04-13T03:25:15.224Z,6
2023-04-13T03:26:14.834Z,6
2023-04-13T03:27:15.038Z,7
2023-04-13T03:28:15.450Z,7
2023-04-13T03:29:14.780Z,7
2023-04-13T03:30:14.798Z,7
2023-04-13T03:31:15.047Z,7
2023-04-13T03:32:14.559Z,5
2023-04-13T03:33:15.083Z,5
2023-04-13T03:34:15.399Z,5
2023-04-13T03:35:14.565Z,5
2023-04-13T03:36:14.754Z,5
2023-04-13T03:37:15.071Z,7
2023-04-13T03:38:15.393Z,7
2023-04-13T03:39:14.802Z,7
2023-04-13T03:43:14.668Z,7
2023-04-13T03:44:14.763Z,7
2023-04-13T03:45:15.049Z,7
2023-04-13T03:46:15.803Z,7
2023-04-13T03:47:14.617Z,6
2023-04-13T03:48:15.114Z,6
2023-04-13T03:49:14.854Z,6
2023-04-13T03:50:15.520Z,6
2023-04-13T03:51:14.788Z,6
2023-04-13T03:52:15.030Z,8
2023-04-13T03:53:15.522Z,8
2023-04-13T03:54:15.404Z,8
2023-04-13T03:55:15.039Z,8
2023-04-13T03:56:15.144Z,8
2023-04-13T03:57:15.495Z,3
2023-04-13T03:58:14.466Z,3
2023-04-13T03:59:14.956Z,3
2023-04-13T04:00:15.396Z,3
2023-04-13T04:01:15.141Z,3
2023-04-13T04:02:15.726Z,6
2023-04-13T04:03:15.087Z,6
2023-04-13T04:04:16.407Z,6
2023-04-13T04:05:15.504Z,6
2023-04-13T04:06:14.970Z,6
2023-04-13T04:07:15.448Z,4
2023-04-13T04:08:14.579Z,4
2023-04-13T04:09:14.978Z,4
2023-04-13T04:10:15.031Z,4
2023-04-13T04:11:15.321Z,4
2023-04-13T04:12:18.092Z,5
2023-04-13T04:16:15.234Z,5
2023-04-13T04:17:15.524Z,5
2023-04-13T04:18:17.457Z,5
2023-04-13T04:19:14.755Z,5
2023-04-13T04:20:15.306Z,5
2023-04-13T04:21:14.837Z,5
2023-04-13T04:26:15.364Z,3
2023-04-13T04:27:15.485Z,1
2023-04-13T04:28:14.597Z,1
2023-04-13T04:29:15.037Z,1
2023-04-13T04:30:15.409Z,1
2023-04-13T04:31:15.520Z,1
2023-04-13T04:32:15.117Z,7
2023-04-13T04:33:15.207Z,7
2023-04-13T04:34:15.357Z,7
2023-04-13T04:35:15.492Z,7
2023-04-13T04:36:14.734Z,7
2023-04-13T04:40:15.608Z,6
2023-04-13T04:41:14.813Z,6
2023-04-13T04:42:14.720Z,3
2023-04-13T04:43:15.260Z,3
2023-04-13T04:44:15.272Z,3
2023-04-13T04:45:14.528Z,3
2023-04-13T04:46:17.950Z,3
2023-04-13T04:47:15.226Z,3
2023-04-13T04:50:14.903Z,3
2023-04-13T04:51:14.944Z,3
2023-04-13T04:52:13.858Z,5
2023-04-13T04:53:14.976Z,5
2023-04-13T04:54:14.935Z,5
2023-04-13T04:55:13.968Z,5
2023-04-13T04:56:14.856Z,5
2023-04-13T04:57:15.210Z,5
2023-04-13T04:58:15.452Z,5
2023-04-13T04:59:14.744Z,5
2023-04-13T05:00:15.173Z,5
2023-04-13T05:01:15.718Z,5
2023-04-13T05:02:14.847Z,5
2023-04-13T05:03:15.314Z,5
2023-04-13T05:06:15.178Z,5
2023-04-13T05:07:15.328Z,7
2023-04-13T05:08:15.513Z,7
2023-04-13T05:09:14.723Z,7
2023-04-13T05:10:15.027Z,7
2023-04-13T05:11:14.815Z,7
2023-04-13T05:12:15.264Z,5
2023-04-13T05:13:15.419Z,5
2023-04-13T05:14:14.754Z,5
2023-04-13T05:15:14.944Z,5
2023-04-13T05:16:15.058Z,5
2023-04-13T05:17:15.075Z,4
2023-04-13T05:18:15.478Z,4
2023-04-13T05:19:14.520Z,4
2023-04-13T05:20:14.850Z,4
2023-04-13T05:21:14.805Z,4
2023-04-13T05:22:15.155Z,6
2023-04-13T05:23:14.801Z,6
2023-04-13T05:24:14.140Z,6
2023-04-13T05:25:15.546Z,6
2023-04-13T05:26:14.968Z,6
2023-04-13T05:27:14.208Z,5
2023-04-13T05:28:15.345Z,5
2023-04-13T05:29:15.627Z,5
2023-04-13T05:30:14.793Z,5
2023-04-13T05:31:15.099Z,5
2023-04-13T05:32:15.976Z,7
2023-04-13T05:33:14.886Z,7
2023-04-13T05:34:15.070Z,7
2023-04-13T05:35:15.208Z,7
2023-04-13T05:36:14.628Z,7
2023-04-13T05:37:14.740Z,7
2023-04-13T05:38:15.064Z,7
2023-04-13T05:39:15.372Z,7
2023-04-13T05:43:14.905Z,7
2023-04-13T05:44:15.165Z,7
2023-04-13T05:45:15.415Z,7
2023-04-13T05:46:15.376Z,7
2023-04-13T05:47:14.502Z,5
2023-04-13T05:48:15.134Z,5
2023-04-13T05:49:15.034Z,5
2023-04-13T05:50:14.739Z,5
2023-04-13T05:51:14.816Z,5
2023-04-13T05:52:15.141Z,7
2023-04-13T05:53:15.284Z,7
2023-04-13T05:54:15.708Z,7
2023-04-13T05:59:14.584Z,4
2023-04-13T06:00:15.037Z,4
2023-04-13T06:01:15.205Z,4
2023-04-13T06:02:16.165Z,7
2023-04-13T06:03:17.308Z,7
2023-04-13T06:04:15.849Z,7
2023-04-13T06:05:15.199Z,7
2023-04-13T06:06:15.353Z,7
2023-04-13T06:07:15.627Z,4
2023-04-13T06:11:14.814Z,4
2023-04-13T06:12:15.099Z,4
2023-04-13T06:13:15.370Z,4
2023-04-13T06:14:14.495Z,4
2023-04-13T06:15:14.865Z,4
2023-04-13T06:16:15.454Z,4
2023-04-13T06:17:15.096Z,4
2023-04-13T06:18:15.305Z,4
2023-04-13T06:19:15.559Z,4
2023-04-13T06:20:14.561Z,4
2023-04-13T06:21:15.257Z,4
2023-04-13T06:22:15.013Z,5
2023-04-13T06:23:15.310Z,5
2023-04-13T06:24:15.412Z,5
2023-04-13T06:25:14.863Z,5
2023-04-13T06:26:16.720Z,5
2023-04-13T06:29:14.657Z,5
2023-04-13T06:30:14.900Z,5
2023-04-13T06:31:18.514Z,5
2023-04-13T06:33:14.828Z,7
2023-04-13T06:34:15.079Z,7
2023-04-13T06:35:15.381Z,7
2023-04-13T06:36:15.676Z,7
2023-04-13T06:37:14.682Z,9
2023-04-13T06:38:14.841Z,9
2023-04-13T06:39:15.272Z,9
2023-04-13T06:40:15.344Z,9
2023-04-13T06:41:15.731Z,9
2023-04-13T06:42:14.863Z,7
2023-04-13T06:47:15.037Z,4
2023-04-13T06:48:15.573Z,4
2023-04-13T06:49:14.731Z,4
2023-04-13T06:50:14.930Z,4
2023-04-13T06:51:15.123Z,4
2023-04-13T06:52:15.295Z,5
2023-04-13T06:53:14.659Z,5
2023-04-13T06:54:14.967Z,5
2023-04-13T06:55:14.565Z,5
2023-04-13T06:56:14.888Z,5
2023-04-13T06:57:15.064Z,8
2023-04-13T06:58:15.308Z,8
2023-04-13T06:59:15.734Z,8
2023-04-13T07:00:35.637Z,8
2023-04-13T07:01:15.585Z,8
2023-04-13T07:02:16.276Z,5
2023-04-13T07:04:15.753Z,5
2023-04-13T07:06:15.112Z,5
2023-04-13T07:07:15.410Z,9
2023-04-13T07:12:14.598Z,9
2023-04-13T07:13:14.865Z,9
2023-04-13T07:14:15.144Z,9
2023-04-13T07:15:15.371Z,9
2023-04-13T07:16:15.769Z,9
2023-04-13T07:17:18.076Z,12
2023-04-13T07:18:14.976Z,12
2023-04-13T07:19:15.147Z,12
2023-04-13T07:20:15.203Z,12
2023-04-13T07:23:15.257Z,15
2023-04-13T07:24:14.599Z,15
2023-04-13T07:25:13.664Z,15
2023-04-13T07:26:15.488Z,15
2023-04-13T07:27:14.743Z,8
2023-04-13T07:28:15.215Z,8
2023-04-13T07:29:15.276Z,8
2023-04-13T07:30:14.852Z,8
2023-04-13T07:31:15.494Z,8
2023-04-13T07:32:15.403Z,9
2023-04-13T07:36:14.638Z,9
2023-04-13T07:37:14.974Z,7
2023-04-13T07:38:15.208Z,7
2023-04-13T07:39:15.638Z,7
2023-04-13T07:40:14.837Z,7
2023-04-13T07:42:15.134Z,8
2023-04-13T07:43:15.328Z,8
2023-04-13T07:44:15.493Z,8
2023-04-13T07:45:15.118Z,8
2023-04-13T07:46:15.517Z,8
2023-04-13T07:47:15.141Z,7
2023-04-13T07:51:14.915Z,7
2023-04-13T07:52:15.148Z,14
2023-04-13T07:53:15.046Z,14
2023-04-13T07:54:16.653Z,14
2023-04-13T07:56:14.816Z,14
2023-04-13T07:57:15.188Z,9
2023-04-13T07:58:15.226Z,9
2023-04-13T07:59:15.497Z,9
2023-04-13T08:03:15.550Z,11
2023-04-13T08:04:16.228Z,11
2023-04-13T08:05:16.744Z,11
2023-04-13T08:06:15.433Z,11
2023-04-13T08:07:14.597Z,14
2023-04-13T08:08:14.999Z,14
2023-04-13T08:09:15.141Z,14
2023-04-13T08:10:15.259Z,14
2023-04-13T08:11:15.435Z,14
2023-04-13T08:12:14.520Z,12
2023-04-13T08:13:14.898Z,12
2023-04-13T08:14:15.326Z,12
2023-04-13T08:15:15.632Z,12
2023-04-13T08:16:14.857Z,12
2023-04-13T08:18:15.216Z,12
2023-04-13T08:20:14.804Z,12
2023-04-13T08:23:16.943Z,17
2023-04-13T08:24:14.878Z,17
2023-04-13T08:25:14.906Z,17
2023-04-13T08:26:15.400Z,17
2023-04-13T08:27:14.811Z,15
2023-04-13T08:28:14.856Z,15
2023-04-13T08:29:15.488Z,15
2023-04-13T08:30:15.972Z,15
2023-04-13T08:33:14.832Z,12
2023-04-13T08:34:14.989Z,12
2023-04-13T08:35:15.298Z,12
2023-04-13T08:36:15.392Z,12
2023-04-13T08:37:14.551Z,19
2023-04-13T08:38:14.889Z,19
2023-04-13T08:39:15.166Z,19
2023-04-13T08:40:15.509Z,19
2023-04-13T08:41:14.731Z,19
2023-04-13T08:42:15.025Z,13
2023-04-13T08:43:15.356Z,13
2023-04-13T08:44:15.793Z,13
2023-04-13T08:45:14.888Z,13
2023-04-13T08:46:14.998Z,13
2023-04-13T08:47:15.170Z,13
2023-04-13T08:48:16.129Z,13
2023-04-13T08:49:15.551Z,13
2023-04-13T08:50:14.417Z,13
2023-04-13T08:51:15.448Z,13
2023-04-13T08:52:16.811Z,13
2023-04-13T08:56:15.498Z,13
2023-04-13T08:57:15.703Z,23
2023-04-13T08:58:14.753Z,23
2023-04-13T08:59:15.058Z,23
2023-04-13T09:00:15.760Z,23
2023-04-13T09:01:14.833Z,23
2023-04-13T09:02:15.711Z,18
2023-04-13T09:04:16.050Z,18
2023-04-13T09:05:16.785Z,18
2023-04-13T09:07:14.928Z,15
2023-04-13T09:08:15.177Z,15
2023-04-13T09:09:15.411Z,15
2023-04-13T09:10:16.293Z,15
2023-04-13T09:11:14.740Z,15
2023-04-13T09:12:14.739Z,13
2023-04-13T09:13:15.110Z,13
2023-04-13T09:17:16.854Z,13
2023-04-13T09:18:15.278Z,13
2023-04-13T09:19:15.269Z,13
2023-04-13T09:20:15.532Z,13
2023-04-13T09:21:14.938Z,13
2023-04-13T09:22:15.214Z,15
2023-04-13T09:24:14.782Z,15
2023-04-13T09:25:15.028Z,15
2023-04-13T09:26:14.965Z,15
2023-04-13T09:27:15.137Z,21
2023-04-13T09:28:15.469Z,21
2023-04-13T09:29:14.612Z,21
2023-04-13T09:30:15.047Z,21
2023-04-13T09:31:15.902Z,21
2023-04-13T09:32:15.504Z,14
2023-04-13T09:35:14.744Z,14
2023-04-13T09:36:14.989Z,14
2023-04-13T09:37:14.953Z,18
2023-04-13T09:38:15.746Z,18
2023-04-13T09:39:14.857Z,18
2023-04-13T09:40:15.567Z,18
2023-04-13T09:42:14.811Z,14
2023-04-13T09:43:14.848Z,14
2023-04-13T09:44:15.464Z,14
2023-04-13T09:45:14.864Z,14
2023-04-13T09:46:15.391Z,14
2023-04-13T09:47:15.575Z,18
2023-04-13T09:48:15.850Z,18
2023-04-13T09:49:15.395Z,18
2023-04-13T09:52:14.875Z,17
2023-04-13T09:53:15.717Z,17
2023-04-13T09:54:15.270Z,17
2023-04-13T09:59:14.302Z,23
2023-04-13T10:00:15.741Z,23
2023-04-13T10:01:14.808Z,23
2023-04-13T10:02:15.877Z,19
2023-04-13T10:03:16.025Z,19
2023-04-13T10:04:15.719Z,19
2023-04-13T10:05:14.997Z,19
2023-04-13T10:06:15.370Z,19
2023-04-13T10:07:15.714Z,13
2023-04-13T10:08:17.961Z,13
2023-04-13T10:09:15.005Z,13
2023-04-13T10:10:15.452Z,13
2023-04-13T10:11:15.564Z,13
2023-04-13T10:12:15.445Z,20
2023-04-13T10:13:24.157Z,20
2023-04-13T10:14:14.794Z,20
2023-04-13T10:15:15.258Z,20
2023-04-13T10:16:17.392Z,20
2023-04-13T10:17:15.451Z,14
2023-04-13T10:18:15.510Z,14
2023-04-13T10:20:15.307Z,14
2023-04-13T10:21:15.486Z,14
2023-04-13T10:22:17.554Z,13
2023-04-13T10:23:15.400Z,13
2023-04-13T10:24:20.231Z,13
2023-04-13T10:25:33.376Z,13
2023-04-13T10:28:14.888Z,15
2023-04-13T10:29:15.264Z,15
2023-04-13T10:30:15.342Z,15
2023-04-13T10:31:15.081Z,15
2023-04-13T10:32:15.634Z,11
2023-04-13T10:33:15.271Z,11
2023-04-13T10:34:16.165Z,11
2023-04-13T10:37:15.168Z,15
2023-04-13T10:38:15.584Z,15
2023-04-13T10:39:14.730Z,15
2023-04-13T10:40:15.543Z,15
2023-04-13T10:41:16.912Z,15
2023-04-13T10:42:16.599Z,11
2023-04-13T10:43:15.127Z,11
2023-04-13T10:44:15.137Z,11
2023-04-13T10:45:15.429Z,11
2023-04-13T10:48:15.824Z,15
2023-04-13T10:52:15.268Z,11
2023-04-13T10:53:14.721Z,11
2023-04-13T10:54:14.852Z,11
2023-04-13T10:55:15.105Z,11
2023-04-13T10:56:15.273Z,11
2023-04-13T10:57:15.580Z,5
2023-04-13T10:58:15.591Z,5
2023-04-13T10:59:14.846Z,5
2023-04-13T11:00:15.146Z,5
2023-04-13T11:01:15.490Z,5
2023-04-13T11:02:15.171Z,30
2023-04-13T11:03:16.876Z,30
2023-04-13T11:05:15.785Z,30
2023-04-13T11:11:17.194Z,11
2023-04-13T11:15:14.837Z,17
2023-04-13T11:16:15.225Z,17
2023-04-13T11:17:16.022Z,11
2023-04-13T11:18:14.879Z,11
2023-04-13T11:19:14.963Z,11
2023-04-13T11:20:15.306Z,11
2023-04-13T11:21:19.150Z,11
2023-04-13T11:22:17.667Z,9
2023-04-13T11:25:14.834Z,9
2023-04-13T11:26:15.585Z,9
2023-04-13T11:27:14.642Z,15
2023-04-13T11:28:15.128Z,15
2023-04-13T11:29:15.093Z,15
2023-04-13T11:30:15.644Z,15
2023-04-13T11:32:14.967Z,13
2023-04-13T11:33:15.396Z,13
2023-04-13T11:36:14.827Z,13
2023-04-13T11:37:15.037Z,13
2023-04-13T11:38:15.296Z,13
2023-04-13T11:39:17.682Z,13
2023-04-13T11:40:14.587Z,13
2023-04-13T11:42:15.507Z,14
2023-04-13T11:47:14.700Z,17
2023-04-13T11:48:15.250Z,17
2023-04-13T11:49:15.090Z,17
2023-04-13T11:50:17.980Z,17
2023-04-13T11:51:15.471Z,17
2023-04-13T11:52:14.869Z,13
2023-04-13T11:53:15.094Z,13
2023-04-13T11:54:15.559Z,13
2023-04-13T11:55:50.060Z,13
2023-04-13T11:58:14.805Z,21
2023-04-13T11:59:15.005Z,21
2023-04-13T12:00:15.379Z,21
2023-04-13T12:01:49.471Z,21
2023-04-13T12:07:18.769Z,9
2023-04-13T12:08:18.837Z,9
2023-04-13T12:10:05.211Z,9
2023-04-13T12:10:43.365Z,9
2023-04-13T12:15:39.088Z,17
2023-04-13T12:17:38.833Z,17
2023-04-13T12:18:42.976Z,12
2023-04-13T12:19:17.257Z,12
2023-04-13T12:21:16.309Z,12
2023-04-13T12:23:30.470Z,19
2023-04-13T12:30:15.264Z,12
2023-04-13T12:31:15.719Z,12
2023-04-13T12:32:15.026Z,14
2023-04-13T12:33:15.160Z,14
2023-04-13T12:34:15.367Z,14
2023-04-13T12:35:15.495Z,14
2023-04-13T12:36:14.805Z,14
2023-04-13T12:37:14.799Z,14
2023-04-13T12:38:15.027Z,14
2023-04-13T12:39:15.733Z,14
2023-04-13T12:40:14.608Z,14
2023-04-13T12:41:15.003Z,14
2023-04-13T12:42:15.206Z,17
2023-04-13T12:43:15.291Z,17
2023-04-13T12:44:14.830Z,17
2023-04-13T12:45:15.035Z,17
2023-04-13T12:46:15.301Z,17
2023-04-13T12:50:14.681Z,9
2023-04-13T12:51:14.809Z,9
2023-04-13T12:52:14.816Z,14
2023-04-13T12:53:15.046Z,14
2023-04-13T12:54:15.411Z,14
2023-04-13T12:55:15.677Z,14
2023-04-13T12:56:15.811Z,14
2023-04-13T12:57:14.635Z,14
2023-04-13T12:58:15.295Z,14
2023-04-13T12:59:15.951Z,14
2023-04-13T13:00:14.519Z,14
2023-04-13T13:01:16.106Z,14
2023-04-13T13:02:15.142Z,12
2023-04-13T13:06:15.142Z,12
2023-04-13T13:07:15.496Z,12
2023-04-13T13:08:15.120Z,12
2023-04-13T13:09:15.446Z,12
2023-04-13T13:10:36.229Z,12
2023-04-13T13:14:17.666Z,12
2023-04-13T13:15:15.225Z,12
2023-04-13T13:20:14.896Z,13
2023-04-13T13:21:15.110Z,13
2023-04-13T13:22:15.179Z,11
2023-04-13T13:23:15.460Z,11
2023-04-13T13:24:14.772Z,11
2023-04-13T13:25:15.268Z,11
2023-04-13T13:28:05.095Z,11
2023-04-13T13:30:14.864Z,14
2023-04-13T13:31:14.906Z,14
2023-04-13T13:32:16.817Z,12
2023-04-13T13:33:15.867Z,12
2023-04-13T13:35:14.997Z,12
2023-04-13T13:36:15.160Z,12
2023-04-13T13:37:15.312Z,14
2023-04-13T13:38:15.370Z,14
2023-04-13T13:39:15.632Z,14
2023-04-13T13:40:14.846Z,14
2023-04-13T13:41:15.482Z,14
2023-04-13T13:45:14.912Z,11
2023-04-13T13:46:15.668Z,11
2023-04-13T13:49:14.898Z,18
2023-04-13T13:50:15.168Z,18
2023-04-13T13:51:18.108Z,18
2023-04-13T13:52:14.641Z,11
2023-04-13T13:54:15.132Z,11
2023-04-13T13:55:15.339Z,11
2023-04-13T13:56:15.019Z,11
2023-04-13T13:57:14.244Z,9
2023-04-13T13:58:14.463Z,9
2023-04-13T13:59:14.773Z,9
2023-04-13T14:00:15.278Z,9
2023-04-13T14:01:15.104Z,9
2023-04-13T14:02:14.911Z,12
2023-04-13T14:03:15.797Z,12
2023-04-13T14:04:15.043Z,12
2023-04-13T14:05:15.189Z,12
2023-04-13T14:06:14.894Z,12
2023-04-13T14:07:14.652Z,7
2023-04-13T14:08:14.760Z,7
2023-04-13T14:09:14.952Z,7
2023-04-13T14:10:15.300Z,7
2023-04-13T14:11:14.516Z,7
2023-04-13T14:12:14.867Z,11
2023-04-13T14:13:15.101Z,11
2023-04-13T14:14:29.341Z,11
2023-04-13T14:16:14.762Z,11
2023-04-13T14:17:14.750Z,11
2023-04-13T14:18:19.547Z,11
2023-04-13T14:19:15.183Z,11
2023-04-13T14:20:14.615Z,11
2023-04-13T14:21:15.007Z,11
2023-04-13T14:22:15.152Z,13
2023-04-13T14:23:14.473Z,13
2023-04-13T14:24:14.561Z,13
2023-04-13T14:25:15.012Z,13
2023-04-13T14:26:14.751Z,13
2023-04-13T14:27:15.004Z,11
2023-04-13T14:28:15.168Z,11
2023-04-13T14:29:14.162Z,11
2023-04-13T14:30:14.538Z,11
2023-04-13T14:31:14.939Z,11
2023-04-13T14:32:15.018Z,13
2023-04-13T14:33:14.915Z,13
2023-04-13T14:34:14.536Z,13
2023-04-13T14:35:14.673Z,13
2023-04-13T14:36:14.525Z,13
2023-04-13T14:37:15.225Z,8
2023-04-13T14:38:14.260Z,8
2023-04-13T14:39:14.605Z,8
2023-04-13T14:40:14.933Z,8
2023-04-13T14:41:14.321Z,8
2023-04-13T14:42:14.536Z,9
2023-04-13T14:43:14.590Z,9
2023-04-13T14:44:15.023Z,9
2023-04-13T14:45:14.302Z,9
2023-04-13T14:46:14.610Z,9
2023-04-13T14:47:18.467Z,8
2023-04-13T14:48:15.558Z,8
2023-04-13T14:49:14.460Z,8
2023-04-13T14:50:14.840Z,8
2023-04-13T14:51:15.074Z,8
2023-04-13T14:52:14.739Z,8
2023-04-13T14:53:14.545Z,8
2023-04-13T14:54:14.910Z,8
2023-04-13T14:55:15.359Z,8
2023-04-13T14:56:14.517Z,8
2023-04-13T14:57:14.797Z,15
2023-04-13T14:58:14.774Z,15
2023-04-13T14:59:15.091Z,15
2023-04-13T15:00:14.490Z,15
2023-04-13T15:01:14.817Z,15
2023-04-13T15:02:15.557Z,13
2023-04-13T15:03:16.206Z,13
2023-04-13T15:04:15.336Z,13
2023-04-13T15:05:16.041Z,13
2023-04-13T15:06:16.576Z,13
2023-04-13T15:07:14.431Z,14
2023-04-13T15:08:14.431Z,14
2023-04-13T15:09:14.887Z,14
2023-04-13T15:10:15.183Z,14
2023-04-13T15:11:15.202Z,14
2023-04-13T15:12:17.999Z,12
2023-04-13T15:14:14.960Z,12
2023-04-13T15:15:15.201Z,12
2023-04-13T15:16:14.610Z,12
2023-04-13T15:17:14.749Z,9
2023-04-13T15:18:15.001Z,9
2023-04-13T15:19:15.008Z,9
2023-04-13T15:20:15.222Z,9
2023-04-13T15:21:14.229Z,9
2023-04-13T15:22:14.508Z,11
2023-04-13T15:23:14.758Z,11
2023-04-13T15:24:14.873Z,11
2023-04-13T15:25:15.163Z,11
2023-04-13T15:26:14.381Z,11
2023-04-13T15:27:14.941Z,11
2023-04-13T15:28:14.901Z,11
2023-04-13T15:29:14.319Z,11
2023-04-13T15:30:14.580Z,11
2023-04-13T15:31:14.822Z,11
2023-04-13T15:32:15.493Z,11
2023-04-13T15:33:15.080Z,11
2023-04-13T15:34:14.414Z,11
2023-04-13T15:35:14.752Z,11
2023-04-13T15:36:15.251Z,11
2023-04-13T15:37:14.489Z,8
2023-04-13T15:38:14.717Z,8
2023-04-13T15:39:14.832Z,8
2023-04-13T15:40:15.227Z,8
2023-04-13T15:41:15.141Z,8
2023-04-13T15:42:14.325Z,9
2023-04-13T15:43:14.752Z,9
2023-04-13T15:44:15.085Z,9
2023-04-13T15:45:15.067Z,9
2023-04-13T15:46:14.580Z,9
2023-04-13T15:47:14.720Z,8
2023-04-13T15:48:14.959Z,8
2023-04-13T15:49:15.115Z,8
2023-04-13T15:50:14.370Z,8
2023-04-13T15:51:14.716Z,8
2023-04-13T15:52:14.719Z,11
2023-04-13T15:53:14.955Z,11
2023-04-13T15:54:15.255Z,11
2023-04-13T15:55:14.451Z,11
2023-04-13T15:56:14.621Z,11
2023-04-13T15:57:14.853Z,11
2023-04-13T15:58:15.094Z,11
2023-04-13T15:59:14.345Z,11
2023-04-13T16:00:14.703Z,11
2023-04-13T16:01:15.219Z,11
2023-04-13T16:02:15.768Z,8
2023-04-13T16:03:14.583Z,8
2023-04-13T16:04:15.451Z,8
2023-04-13T16:05:14.952Z,8
2023-04-13T16:06:15.260Z,8
2023-04-13T16:07:22.387Z,9
2023-04-13T16:09:15.168Z,9
2023-04-13T16:10:14.988Z,9
2023-04-13T16:11:14.616Z,9
2023-04-13T16:12:14.920Z,13
2023-04-13T16:13:14.351Z,13
2023-04-13T16:14:14.471Z,13
2023-04-13T16:15:14.900Z,13
2023-04-13T16:16:14.754Z,13
2023-04-13T16:17:14.451Z,12
2023-04-13T16:18:15.004Z,12
2023-04-13T16:19:14.930Z,12
2023-04-13T16:20:15.343Z,12
2023-04-13T16:21:15.475Z,12
2023-04-13T16:22:14.283Z,11
2023-04-13T16:23:14.848Z,11
2023-04-13T16:24:14.959Z,11
2023-04-13T16:25:14.966Z,11
2023-04-13T16:26:14.448Z,11
2023-04-13T16:27:15.211Z,9
2023-04-13T16:28:14.882Z,9
2023-04-13T16:29:14.317Z,9
2023-04-13T16:30:14.825Z,9
2023-04-13T16:31:15.294Z,9
2023-04-13T16:32:14.420Z,9
2023-04-13T16:33:15.082Z,9
2023-04-13T16:34:33.367Z,9
2023-04-13T16:36:14.546Z,9
2023-04-13T16:37:15.275Z,9
2023-04-13T16:38:14.337Z,9
2023-04-13T16:39:17.005Z,9
2023-04-13T16:40:14.959Z,9
2023-04-13T16:41:14.610Z,9
2023-04-13T16:42:14.826Z,12
2023-04-13T16:43:15.196Z,12
2023-04-13T16:44:14.432Z,12
2023-04-13T16:45:18.109Z,12
2023-04-13T16:47:14.879Z,11
2023-04-13T16:48:15.536Z,11
2023-04-13T16:49:14.415Z,11
2023-04-13T16:50:14.956Z,11
2023-04-13T16:51:14.318Z,11
2023-04-13T16:52:14.643Z,7
2023-04-13T16:53:14.915Z,7
2023-04-13T16:54:14.356Z,7
2023-04-13T16:55:14.433Z,7
2023-04-13T16:56:17.489Z,7
2023-04-13T16:57:15.423Z,8
2023-04-13T16:58:14.463Z,8
2023-04-13T16:59:14.799Z,8
2023-04-13T17:00:14.688Z,8
2023-04-13T17:01:15.335Z,8
2023-04-13T17:02:33.424Z,9
2023-04-13T17:04:15.711Z,9
2023-04-13T17:05:14.210Z,9
2023-04-13T17:06:15.105Z,9
2023-04-13T17:07:14.377Z,8
2023-04-13T17:08:16.293Z,8
2023-04-13T17:09:15.015Z,8
2023-04-13T17:10:15.366Z,8
2023-04-13T17:11:15.054Z,8
2023-04-13T17:12:14.392Z,7
2023-04-13T17:13:14.560Z,7
2023-04-13T17:14:14.901Z,7
2023-04-13T17:15:14.340Z,7
2023-04-13T17:16:15.024Z,7
2023-04-13T17:17:14.425Z,9
2023-04-13T17:18:15.039Z,9
2023-04-13T17:19:14.853Z,9
2023-04-13T17:20:17.347Z,9
2023-04-13T17:21:14.542Z,9
2023-04-13T17:22:14.606Z,8
2023-04-13T17:23:14.915Z,8
2023-04-13T17:24:15.339Z,8
2023-04-13T17:25:14.338Z,8
2023-04-13T17:26:13.673Z,8
2023-04-13T17:27:14.944Z,7
2023-04-13T17:28:14.492Z,7
2023-04-13T17:29:14.371Z,7
2023-04-13T17:30:14.709Z,7
2023-04-13T17:31:14.909Z,7
2023-04-13T17:32:15.551Z,8
2023-04-13T17:33:15.373Z,8
2023-04-13T17:34:14.404Z,8
2023-04-13T17:35:14.659Z,8
2023-04-13T17:36:15.175Z,8
2023-04-13T17:37:15.034Z,9
2023-04-13T17:38:15.434Z,9
2023-04-13T17:39:14.792Z,9
2023-04-13T17:40:15.045Z,9
2023-04-13T17:41:15.271Z,9
2023-04-13T17:42:14.120Z,8
2023-04-13T17:43:14.462Z,8